Time;durP1;ratioP1;P1;durP2;ratioP2;P2;SDS_P1;SDS_P2;PMS_P1;PMS_P2;Temp;Humidity;BMP_temperature;BMP_pressure;BME280_temperature;BME280_humidity;BME280_pressure;Samples;Min_cycle;Max_cycle;Signal;HPM_P1;HPM_P2
2021/12/29 00:00:19;;;;;;;97.25;43.20;;;;;;;;;;5117465;28;20055;-93
2021/12/29 00:02:45;;;;;;;109.65;46.72;;;;;;;;;;5117436;28;20043;-92
2021/12/29 00:05:11;;;;;;;115.97;48.28;;;;;;;;;;5116987;28;20405;-93
2021/12/29 00:07:39;;;;;;;107.13;46.67;;;;;;;;;;5117256;28;20185;-93
2021/12/29 00:10:05;;;;;;;90.97;41.50;;;;;;;;;;5118083;28;20020;-92
2021/12/29 00:15:36;;;;;;;93.85;40.33;;;;;;;;;;5118384;28;20031;-93
2021/12/29 00:18:02;;;;;;;88.85;38.20;;;;;;;;;;5118107;28;20031;-94
2021/12/29 00:20:30;;;;;;;89.53;38.90;;;;;;;;;;5118101;28;20371;-94
2021/12/29 00:22:57;;;;;;;94.55;40.00;;;;;;;;;;5118087;28;20028;-93
2021/12/29 00:25:23;;;;;;;91.43;39.65;;;;;;;;;;5116836;28;20081;-94
2021/12/29 00:30:52;;;;;;;91.63;40.92;;;;;;;;;;5122518;28;20064;-92
2021/12/29 00:33:19;;;;;;;92.35;39.20;;;;;;;;;;5122399;28;20032;-93
2021/12/29 00:35:45;;;;;;;96.35;40.13;;;;;;;;;;5122392;28;20024;-92
2021/12/29 00:38:11;;;;;;;86.80;37.35;;;;;;;;;;5122161;28;20020;-92
2021/12/29 00:40:38;;;;;;;96.47;38.85;;;;;;;;;;5122202;28;20526;-94
2021/12/29 00:43:42;;;;;;;91.15;38.35;;;;;;;;;;5122160;28;20046;-93
2021/12/29 00:46:10;;;;;;;104.97;39.55;;;;;;;;;;5122237;28;20027;-94
2021/12/29 00:48:39;;;;;;;102.47;40.83;;;;;;;;;;5120984;28;20073;-92
2021/12/29 00:51:05;;;;;;;101.60;40.08;;;;;;;;;;5121693;28;20024;-92
2021/12/29 00:53:31;;;;;;;99.38;39.97;;;;;;;;;;5120699;28;20038;-92
2021/12/29 00:55:57;;;;;;;116.20;45.42;;;;;;;;;;5121905;28;20106;-93
2021/12/29 00:58:23;;;;;;;116.07;46.35;;;;;;;;;;5121608;28;20016;-93
2021/12/29 01:00:49;;;;;;;122.00;49.15;;;;;;;;;;5120687;28;20020;-93
2021/12/29 01:03:16;;;;;;;116.80;44.03;;;;;;;;;;5120538;28;20130;-91
2021/12/29 01:05:43;;;;;;;115.55;47.97;;;;;;;;;;5121897;28;20309;-93
2021/12/29 01:08:10;;;;;;;112.40;45.92;;;;;;;;;;5121459;28;20402;-92
2021/12/29 01:10:37;;;;;;;123.80;48.72;;;;;;;;;;5121393;27;20054;-93
2021/12/29 01:13:03;;;;;;;121.88;46.58;;;;;;;;;;5121563;28;20111;-92
2021/12/29 01:15:36;;;;;;;145.65;60.25;;;;;;;;;;5121082;28;20043;-92
2021/12/29 01:18:04;;;;;;;141.02;61.03;;;;;;;;;;5120423;28;20043;-92
2021/12/29 01:20:30;;;;;;;152.48;59.13;;;;;;;;;;5120919;28;20019;-93
2021/12/29 01:22:58;;;;;;;131.55;53.75;;;;;;;;;;5121189;28;20042;-93
2021/12/29 01:25:24;;;;;;;128.05;51.13;;;;;;;;;;5121437;28;20032;-94
2021/12/29 01:30:54;;;;;;;136.15;52.08;;;;;;;;;;5121118;28;20031;-93
2021/12/29 01:33:20;;;;;;;129.40;49.65;;;;;;;;;;5121160;28;20023;-93
2021/12/29 01:35:46;;;;;;;120.30;47.33;;;;;;;;;;5121012;28;20024;-89
2021/12/29 01:38:12;;;;;;;123.20;45.50;;;;;;;;;;5119201;28;20028;-87
2021/12/29 01:40:39;;;;;;;94.95;38.47;;;;;;;;;;5120220;28;20023;-88
2021/12/29 01:46:09;;;;;;;87.90;36.95;;;;;;;;;;5120832;28;20026;-89
2021/12/29 01:48:35;;;;;;;88.53;36.83;;;;;;;;;;5120943;28;20031;-89
2021/12/29 01:51:01;;;;;;;85.03;36.38;;;;;;;;;;5120646;28;20035;-89
2021/12/29 01:53:31;;;;;;;81.80;37.05;;;;;;;;;;5118710;28;20028;-89
2021/12/29 01:55:57;;;;;;;83.93;36.50;;;;;;;;;;5120469;28;20032;-90
2021/12/29 01:58:42;;;;;;;82.18;34.40;;;;;;;;;;5103698;28;20024;-89
2021/12/29 02:01:08;;;;;;;79.13;35.45;;;;;;;;;;5113289;28;20497;-89
2021/12/29 02:03:34;;;;;;;81.40;35.40;;;;;;;;;;5119436;28;20429;-89
2021/12/29 02:06:00;;;;;;;80.97;33.15;;;;;;;;;;5119397;28;20097;-90
2021/12/29 02:08:26;;;;;;;84.00;34.38;;;;;;;;;;5120287;28;20029;-89
2021/12/29 02:10:55;;;;;;;77.28;32.30;;;;;;;;;;5120331;28;20031;-90
2021/12/29 02:16:25;;;;;;;81.95;33.78;;;;;;;;;;5120342;28;20019;-89
2021/12/29 02:18:52;;;;;;;76.53;33.10;;;;;;;;;;5120477;27;20318;-90
2021/12/29 02:21:20;;;;;;;71.50;30.92;;;;;;;;;;5119838;28;20435;-89
2021/12/29 02:24:04;;;;;;;76.72;31.50;;;;;;;;;;5119920;28;20035;-89
2021/12/29 02:26:30;;;;;;;73.55;31.52;;;;;;;;;;5118687;28;20035;-88
2021/12/29 02:32:01;;;;;;;77.25;31.85;;;;;;;;;;5120211;28;20030;-89
2021/12/29 02:34:27;;;;;;;69.72;30.13;;;;;;;;;;5120006;28;20023;-89
2021/12/29 02:36:54;;;;;;;72.65;29.85;;;;;;;;;;5119813;28;20027;-89
2021/12/29 02:39:23;;;;;;;72.80;30.48;;;;;;;;;;5119687;28;20390;-89
2021/12/29 02:44:41;;;;;;;68.03;29.60;;;;;;;;;;5120048;28;20112;-88
2021/12/29 02:47:07;;;;;;;71.28;29.60;;;;;;;;;;5119888;28;20048;-89
2021/12/29 02:49:34;;;;;;;70.68;30.48;;;;;;;;;;5117800;28;20042;-88
2021/12/29 02:52:00;;;;;;;77.38;31.75;;;;;;;;;;5119876;28;20027;-89
2021/12/29 02:54:26;;;;;;;68.45;30.50;;;;;;;;;;5119701;28;20028;-89
2021/12/29 02:59:37;;;;;;;74.05;30.45;;;;;;;;;;5119557;28;20025;-89
2021/12/29 03:02:03;;;;;;;61.13;27.80;;;;;;;;;;5105424;28;20440;-89
2021/12/29 03:04:29;;;;;;;75.07;30.50;;;;;;;;;;5097928;28;20032;-89
2021/12/29 03:06:55;;;;;;;70.90;29.88;;;;;;;;;;5098868;28;20036;-88
2021/12/29 03:09:22;;;;;;;72.10;29.05;;;;;;;;;;5097776;28;20024;-89
2021/12/29 03:11:48;;;;;;;64.25;27.25;;;;;;;;;;5097853;28;20027;-89
2021/12/29 03:14:14;;;;;;;69.72;29.33;;;;;;;;;;5098994;28;20073;-89
2021/12/29 03:16:41;;;;;;;83.32;32.08;;;;;;;;;;5097678;28;20016;-89
2021/12/29 03:19:08;;;;;;;102.25;37.28;;;;;;;;;;5098784;28;20032;-89
2021/12/29 03:21:35;;;;;;;97.90;37.67;;;;;;;;;;5097443;28;20077;-90
2021/12/29 03:24:01;;;;;;;102.35;39.03;;;;;;;;;;5115424;28;20036;-88
2021/12/29 03:26:27;;;;;;;94.40;38.00;;;;;;;;;;5118788;28;20062;-90
2021/12/29 03:31:59;;;;;;;87.05;38.17;;;;;;;;;;5118848;28;20038;-90
2021/12/29 03:34:25;;;;;;;76.25;32.03;;;;;;;;;;5118730;28;20032;-90
2021/12/29 03:36:51;;;;;;;76.43;32.25;;;;;;;;;;5118931;28;20024;-89
2021/12/29 03:39:18;;;;;;;97.03;37.33;;;;;;;;;;5109859;28;20395;-90
2021/12/29 03:41:44;;;;;;;84.32;35.78;;;;;;;;;;5097115;28;20032;-89
2021/12/29 03:47:13;;;;;;;86.32;33.70;;;;;;;;;;5098139;28;20027;-89
2021/12/29 03:49:39;;;;;;;70.60;31.90;;;;;;;;;;5098123;28;20110;-89
2021/12/29 03:52:06;;;;;;;72.78;31.90;;;;;;;;;;5097924;28;20027;-88
2021/12/29 03:54:32;;;;;;;67.32;30.20;;;;;;;;;;5097720;28;20024;-89
2021/12/29 03:57:01;;;;;;;66.28;30.45;;;;;;;;;;5118137;28;20034;-89
2021/12/29 03:59:29;;;;;;;63.53;29.17;;;;;;;;;;5118662;28;20023;-90
2021/12/29 04:01:55;;;;;;;73.78;33.00;;;;;;;;;;5116658;28;20032;-90
2021/12/29 04:04:22;;;;;;;80.47;37.50;;;;;;;;;;5118467;28;20089;-89
2021/12/29 04:06:48;;;;;;;92.30;38.70;;;;;;;;;;5117284;28;20034;-89
2021/12/29 04:09:15;;;;;;;78.30;36.08;;;;;;;;;;5117820;28;20024;-90
2021/12/29 04:11:42;;;;;;;69.05;33.50;;;;;;;;;;5117848;28;20035;-89
2021/12/29 04:14:08;;;;;;;68.35;33.45;;;;;;;;;;5118080;28;20037;-90
2021/12/29 04:16:37;;;;;;;61.05;32.53;;;;;;;;;;5118048;28;20024;-89
2021/12/29 04:19:15;;;;;;;63.60;33.92;;;;;;;;;;5117340;28;20371;-89
2021/12/29 04:21:42;;;;;;;68.53;35.35;;;;;;;;;;5117911;28;20035;-89
2021/12/29 04:24:09;;;;;;;67.45;35.88;;;;;;;;;;5118347;28;20046;-90
2021/12/29 04:26:37;;;;;;;56.65;30.98;;;;;;;;;;5107621;28;20028;-89
2021/12/29 04:29:03;;;;;;;57.50;29.52;;;;;;;;;;5096771;28;20024;-89
2021/12/29 04:31:30;;;;;;;51.13;28.17;;;;;;;;;;5097642;28;20028;-90
2021/12/29 04:33:56;;;;;;;49.20;27.60;;;;;;;;;;5096513;28;20046;-90
2021/12/29 04:36:24;;;;;;;62.70;33.45;;;;;;;;;;5097889;28;20016;-90
2021/12/29 04:38:50;;;;;;;60.00;32.17;;;;;;;;;;5097688;28;20390;-90
2021/12/29 04:41:17;;;;;;;63.65;34.25;;;;;;;;;;5097551;28;20035;-89
2021/12/29 04:43:44;;;;;;;63.45;34.60;;;;;;;;;;5108895;28;20027;-90
2021/12/29 04:46:14;;;;;;;69.75;36.55;;;;;;;;;;5118135;28;20041;-89
2021/12/29 04:48:46;;;;;;;78.38;38.17;;;;;;;;;;5116551;28;20329;-89
2021/12/29 04:51:15;;;;;;;74.65;38.15;;;;;;;;;;5117639;28;20417;-90
2021/12/29 05:10:46;;;;;;;77.63;39.75;;;;;;;;;;5074923;28;20452;-91
2021/12/29 05:13:13;;;;;;;82.60;43.97;;;;;;;;;;5074021;28;20037;-90
2021/12/29 05:15:39;;;;;;;81.78;45.92;;;;;;;;;;5073898;28;20064;-90
2021/12/29 05:18:05;;;;;;;81.03;43.15;;;;;;;;;;5073687;28;20029;-92
2021/12/29 05:20:32;;;;;;;77.18;40.70;;;;;;;;;;5075326;28;20045;-91
2021/12/29 05:22:59;;;;;;;69.38;38.83;;;;;;;;;;5073793;28;20025;-91
2021/12/29 05:25:25;;;;;;;68.50;39.78;;;;;;;;;;5074416;28;20032;-91
2021/12/29 05:27:52;;;;;;;67.82;40.55;;;;;;;;;;5074140;28;20079;-91
2021/12/29 05:30:18;;;;;;;72.15;37.40;;;;;;;;;;5073662;28;20024;-92
2021/12/29 05:32:44;;;;;;;64.88;36.53;;;;;;;;;;5074838;28;20090;-91
2021/12/29 05:35:11;;;;;;;58.95;34.17;;;;;;;;;;5073475;28;20033;-91
2021/12/29 05:37:37;;;;;;;61.22;35.17;;;;;;;;;;5074310;28;20406;-91
2021/12/29 05:43:07;;;;;;;70.18;43.17;;;;;;;;;;5074743;28;20023;-92
2021/12/29 05:45:33;;;;;;;65.43;40.58;;;;;;;;;;5073374;28;20021;-92
2021/12/29 06:47:48;;;;;;;49.13;32.67;;;;;;;;;;5095437;27;20394;-92
2021/12/29 06:50:14;;;;;;;44.28;28.85;;;;;;;;;;5094159;28;20035;-90
2021/12/29 06:52:40;;;;;;;46.20;30.45;;;;;;;;;;5094703;28;20020;-89
2021/12/29 06:55:07;;;;;;;45.97;28.30;;;;;;;;;;5093624;28;20028;-89
2021/12/29 06:57:33;;;;;;;46.83;28.90;;;;;;;;;;5093474;28;20043;-88
2021/12/29 06:59:59;;;;;;;49.08;29.33;;;;;;;;;;5093953;28;20028;-90
2021/12/29 07:02:25;;;;;;;55.58;35.13;;;;;;;;;;5094353;28;20035;-89
2021/12/29 07:04:51;;;;;;;53.20;34.22;;;;;;;;;;5094610;28;20020;-88
2021/12/29 07:07:17;;;;;;;55.05;32.92;;;;;;;;;;5094949;28;20032;-89
2021/12/29 07:09:43;;;;;;;52.13;32.00;;;;;;;;;;5093233;28;20028;-90
2021/12/29 07:12:09;;;;;;;56.38;34.50;;;;;;;;;;5094208;28;20059;-89
2021/12/29 07:14:38;;;;;;;54.92;33.22;;;;;;;;;;5093617;28;20352;-87
2021/12/29 07:17:05;;;;;;;54.03;33.60;;;;;;;;;;5093485;28;20033;-87
2021/12/29 07:19:31;;;;;;;48.22;29.38;;;;;;;;;;5093716;28;20024;-88
2021/12/29 07:22:00;;;;;;;66.25;37.33;;;;;;;;;;5093239;28;20326;-88
2021/12/29 07:24:26;;;;;;;85.85;47.55;;;;;;;;;;5094510;28;20016;-88
2021/12/29 07:26:52;;;;;;;88.70;46.97;;;;;;;;;;5093989;28;20402;-89
2021/12/29 07:29:18;;;;;;;79.00;45.22;;;;;;;;;;5094341;28;20146;-88
2021/12/29 07:31:44;;;;;;;77.05;44.97;;;;;;;;;;5094037;28;20024;-88
2021/12/29 07:34:10;;;;;;;75.15;46.22;;;;;;;;;;5093337;28;20036;-89
2021/12/29 07:36:36;;;;;;;73.60;44.38;;;;;;;;;;5094142;28;20115;-88
2021/12/29 07:39:02;;;;;;;60.50;35.65;;;;;;;;;;5088055;28;20318;-88
2021/12/29 07:41:28;;;;;;;58.60;34.25;;;;;;;;;;5081695;28;20042;-88
2021/12/29 07:43:56;;;;;;;59.47;34.17;;;;;;;;;;5075203;28;20016;-88
2021/12/29 07:46:22;;;;;;;51.65;30.65;;;;;;;;;;5074800;28;20053;-87
2021/12/29 07:48:48;;;;;;;47.50;29.40;;;;;;;;;;5076843;28;20032;-89
2021/12/29 07:51:16;;;;;;;50.20;30.52;;;;;;;;;;5075020;28;20136;-89
2021/12/29 07:53:43;;;;;;;60.83;32.45;;;;;;;;;;5080199;28;20059;-89
2021/12/29 07:56:09;;;;;;;53.75;33.25;;;;;;;;;;5079360;28;20070;-88
2021/12/29 07:58:35;;;;;;;58.03;34.28;;;;;;;;;;5069569;28;20051;-88
2021/12/29 08:01:02;;;;;;;71.40;42.05;;;;;;;;;;5065032;28;20024;-88
2021/12/29 08:03:28;;;;;;;70.38;40.15;;;;;;;;;;5064653;28;20029;-89
2021/12/29 08:12:02;;;;;;;101.30;46.22;;;;;;;;;;5066528;28;20032;-89
2021/12/29 08:14:28;;;;;;;98.32;47.35;;;;;;;;;;5060888;28;20036;-88
2021/12/29 08:16:54;;;;;;;76.55;38.67;;;;;;;;;;5059814;28;20371;-88
2021/12/29 08:19:20;;;;;;;85.45;44.20;;;;;;;;;;5068671;28;20059;-88
2021/12/29 08:21:46;;;;;;;100.05;49.72;;;;;;;;;;5060319;28;20021;-87
2021/12/29 08:24:12;;;;;;;110.88;54.40;;;;;;;;;;5066745;28;20035;-88
2021/12/29 08:26:38;;;;;;;85.25;45.40;;;;;;;;;;5079764;28;20016;-86
2021/12/29 08:29:04;;;;;;;63.22;36.72;;;;;;;;;;5062496;28;20029;-88
2021/12/29 08:31:31;;;;;;;59.63;34.33;;;;;;;;;;5078758;28;20062;-88
2021/12/29 08:33:57;;;;;;;53.40;31.77;;;;;;;;;;5078443;28;20157;-88
2021/12/29 08:36:23;;;;;;;65.63;33.83;;;;;;;;;;5079825;28;20032;-88
2021/12/29 08:38:49;;;;;;;73.72;38.03;;;;;;;;;;5076903;28;20016;-87
2021/12/29 08:41:16;;;;;;;81.93;40.88;;;;;;;;;;5059246;28;20064;-87
2021/12/29 08:43:42;;;;;;;102.90;48.25;;;;;;;;;;5062769;28;20041;-88
2021/12/29 08:46:08;;;;;;;91.60;48.17;;;;;;;;;;5078277;28;20063;-87
2021/12/29 08:48:37;;;;;;;92.35;47.95;;;;;;;;;;5062535;28;20073;-88
2021/12/29 08:51:03;;;;;;;98.20;51.03;;;;;;;;;;5064099;28;20413;-88
2021/12/29 08:53:29;;;;;;;103.57;54.55;;;;;;;;;;5070648;28;20033;-88
2021/12/29 08:55:57;;;;;;;174.63;73.72;;;;;;;;;;5078459;28;20083;-87
2021/12/29 08:58:26;;;;;;;120.88;59.15;;;;;;;;;;5077109;28;20100;-87
2021/12/29 09:00:53;;;;;;;101.10;56.08;;;;;;;;;;5077763;28;20021;-88
2021/12/29 09:03:20;;;;;;;113.65;58.92;;;;;;;;;;5077490;28;20112;-87
2021/12/29 09:05:46;;;;;;;114.57;60.88;;;;;;;;;;5078375;28;20149;-87
2021/12/29 09:08:12;;;;;;;119.20;62.20;;;;;;;;;;5077518;28;20103;-88
2021/12/29 09:10:38;;;;;;;113.95;60.47;;;;;;;;;;5077724;28;20029;-88
2021/12/29 09:13:05;;;;;;;120.47;59.58;;;;;;;;;;5075513;28;20040;-89
2021/12/29 09:15:32;;;;;;;125.57;63.70;;;;;;;;;;5058767;28;20029;-88
2021/12/29 09:17:59;;;;;;;190.85;82.75;;;;;;;;;;5059378;28;20029;-88
2021/12/29 09:20:31;;;;;;;151.13;71.60;;;;;;;;;;5058943;28;20025;-89
2021/12/29 09:26:01;;;;;;;109.70;51.90;;;;;;;;;;5060080;28;20063;-88
2021/12/29 09:28:27;;;;;;;121.85;58.30;;;;;;;;;;5062982;28;20059;-87
2021/12/29 09:30:53;;;;;;;122.15;58.90;;;;;;;;;;5058844;28;20025;-88
2021/12/29 09:33:20;;;;;;;104.35;52.85;;;;;;;;;;5059505;28;20108;-88
2021/12/29 09:35:47;;;;;;;117.95;54.25;;;;;;;;;;5058489;28;20041;-87
2021/12/29 09:41:54;;;;;;;99.47;49.33;;;;;;;;;;5071689;28;20056;-88
2021/12/29 09:44:21;;;;;;;96.90;49.08;;;;;;;;;;5065520;28;20029;-88
2021/12/29 09:46:51;;;;;;;107.65;50.33;;;;;;;;;;5072034;28;20057;-87
2021/12/29 09:49:18;;;;;;;145.93;60.78;;;;;;;;;;5057770;28;20037;-87
2021/12/29 09:51:44;;;;;;;118.30;56.85;;;;;;;;;;5067358;28;20028;-87
2021/12/29 09:54:10;;;;;;;131.32;62.45;;;;;;;;;;5077172;28;20036;-88
2021/12/29 09:56:36;;;;;;;116.68;59.40;;;;;;;;;;5077361;28;20421;-88
2021/12/29 09:59:03;;;;;;;105.55;54.05;;;;;;;;;;5078465;28;20082;-86
2021/12/29 10:01:29;;;;;;;123.45;56.35;;;;;;;;;;5077177;28;20029;-86
2021/12/29 10:03:55;;;;;;;111.22;55.72;;;;;;;;;;5069514;28;20025;-92
2021/12/29 10:06:21;;;;;;;98.68;51.95;;;;;;;;;;5077216;28;20028;-92
2021/12/29 10:08:48;;;;;;;97.32;54.33;;;;;;;;;;5072819;28;20036;-92
2021/12/29 10:11:28;;;;;;;97.93;53.22;;;;;;;;;;5057486;28;20334;-90
2021/12/29 10:13:54;;;;;;;92.13;49.25;;;;;;;;;;5057945;28;20041;-93
2021/12/29 10:16:24;;;;;;;84.40;47.85;;;;;;;;;;5057994;28;20063;-92
2021/12/29 10:18:54;;;;;;;101.13;55.20;;;;;;;;;;5056930;28;20094;-91
2021/12/29 10:21:22;;;;;;;97.70;53.35;;;;;;;;;;5057158;28;20035;-93
2021/12/29 10:23:49;;;;;;;111.38;62.38;;;;;;;;;;5057763;28;20021;-92
2021/12/29 10:26:19;;;;;;;97.45;53.67;;;;;;;;;;5057767;28;20337;-93
2021/12/29 10:28:50;;;;;;;94.97;51.53;;;;;;;;;;5056847;28;20033;-92
2021/12/29 10:31:18;;;;;;;84.27;45.30;;;;;;;;;;5057577;28;20036;-93
2021/12/29 10:33:58;;;;;;;87.68;46.03;;;;;;;;;;5056940;28;20407;-93
2021/12/29 10:36:24;;;;;;;82.95;45.72;;;;;;;;;;5057336;28;20353;-93
2021/12/29 10:38:59;;;;;;;81.93;43.47;;;;;;;;;;5056530;28;20077;-92
2021/12/29 10:41:26;;;;;;;144.88;58.60;;;;;;;;;;5070013;28;20070;-92
2021/12/29 10:43:54;;;;;;;120.18;54.15;;;;;;;;;;5077120;28;20039;-91
2021/12/29 10:46:21;;;;;;;115.32;51.70;;;;;;;;;;5077325;28;20053;-93
2021/12/29 10:48:49;;;;;;;103.35;46.05;;;;;;;;;;5077722;28;20036;-93
2021/12/29 10:51:15;;;;;;;120.95;51.25;;;;;;;;;;5076618;28;20310;-91
2021/12/29 10:53:41;;;;;;;102.55;45.05;;;;;;;;;;5057864;28;20032;-92
2021/12/29 10:56:18;;;;;;;83.38;40.17;;;;;;;;;;5056425;28;20055;-93
2021/12/29 10:58:44;;;;;;;73.97;37.55;;;;;;;;;;5056309;28;20353;-93
2021/12/29 11:01:12;;;;;;;70.65;37.03;;;;;;;;;;5056395;28;20027;-93
2021/12/29 11:03:52;;;;;;;72.53;38.70;;;;;;;;;;5056849;28;20033;-92
2021/12/29 11:06:20;;;;;;;82.25;44.15;;;;;;;;;;5057487;28;20398;-92
2021/12/29 11:08:50;;;;;;;68.30;38.75;;;;;;;;;;5057499;28;20033;-92
2021/12/29 11:11:17;;;;;;;71.28;40.47;;;;;;;;;;5056479;28;20029;-95
2021/12/29 11:13:43;;;;;;;66.68;36.38;;;;;;;;;;5057298;28;20074;-94
2021/12/29 11:16:09;;;;;;;95.97;49.45;;;;;;;;;;5057243;28;20033;-95
2021/12/29 11:18:43;;;;;;;108.68;55.17;;;;;;;;;;5056146;28;20314;-94
2021/12/29 11:21:09;;;;;;;132.45;67.45;;;;;;;;;;5056344;28;20048;-93
2021/12/29 11:23:41;;;;;;;175.88;82.63;;;;;;;;;;5059312;28;20052;-93
2021/12/29 11:26:11;;;;;;;312.92;139.20;;;;;;;;;;5060051;28;20029;-89
2021/12/29 11:28:37;;;;;;;122.63;60.58;;;;;;;;;;5069426;28;20528;-91
2021/12/29 11:31:05;;;;;;;79.43;42.70;;;;;;;;;;5066161;28;20021;-92
2021/12/29 11:33:32;;;;;;;82.47;45.65;;;;;;;;;;5063212;28;20029;-93
2021/12/29 11:35:58;;;;;;;83.82;43.05;;;;;;;;;;5060034;28;20418;-95
2021/12/29 11:41:27;;;;;;;74.50;38.47;;;;;;;;;;5077750;28;20536;-91
2021/12/29 11:43:54;;;;;;;87.20;45.67;;;;;;;;;;5073520;28;20029;-95
2021/12/29 11:46:24;;;;;;;75.20;41.55;;;;;;;;;;5065519;28;20344;-96
2021/12/29 11:48:51;;;;;;;79.43;44.83;;;;;;;;;;5059604;28;20079;-92
2021/12/29 11:51:19;;;;;;;362.60;176.70;;;;;;;;;;5061799;28;20025;-93
2021/12/29 11:53:55;;;;;;;186.38;90.97;;;;;;;;;;5063123;28;20051;-92
2021/12/29 11:56:21;;;;;;;208.35;102.88;;;;;;;;;;5070765;28;20048;-91
2021/12/29 11:58:48;;;;;;;134.25;66.63;;;;;;;;;;5064084;28;20111;-93
2021/12/29 12:01:23;;;;;;;144.13;70.97;;;;;;;;;;5060153;28;20099;-93
2021/12/29 12:03:55;;;;;;;188.07;93.65;;;;;;;;;;5060714;28;20029;-92
2021/12/29 12:06:43;;;;;;;82.38;43.08;;;;;;;;;;5060324;28;20032;-94
2021/12/29 12:09:14;;;;;;;131.10;68.60;;;;;;;;;;5070418;28;20422;-91
2021/12/29 12:11:50;;;;;;;134.40;68.53;;;;;;;;;;5060709;28;20314;-92
2021/12/29 12:14:17;;;;;;;70.40;37.67;;;;;;;;;;5080542;28;20461;-91
2021/12/29 12:16:54;;;;;;;83.05;47.95;;;;;;;;;;5061230;28;20075;-92
2021/12/29 12:19:21;;;;;;;104.28;55.13;;;;;;;;;;5060129;28;20059;-92
2021/12/29 12:22:00;;;;;;;162.23;75.03;;;;;;;;;;5078052;28;20024;-94
2021/12/29 12:24:26;;;;;;;162.27;80.28;;;;;;;;;;5080276;28;20419;-93
2021/12/29 12:26:57;;;;;;;324.08;143.80;;;;;;;;;;5077289;28;20045;-91
2021/12/29 12:29:28;;;;;;;125.75;63.63;;;;;;;;;;5077377;28;20028;-91
2021/12/29 12:32:01;;;;;;;89.32;47.47;;;;;;;;;;5079851;28;20032;-93
2021/12/29 12:34:28;;;;;;;108.15;52.50;;;;;;;;;;5078651;28;20410;-92
2021/12/29 12:36:54;;;;;;;89.47;44.78;;;;;;;;;;5078900;28;20028;-92
2021/12/29 12:39:21;;;;;;;70.50;40.30;;;;;;;;;;5079800;28;20031;-91
2021/12/29 12:41:49;;;;;;;70.80;40.33;;;;;;;;;;5069312;28;20418;-92
2021/12/29 12:44:17;;;;;;;81.07;43.10;;;;;;;;;;5059473;28;20411;-91
2021/12/29 12:46:48;;;;;;;170.13;83.07;;;;;;;;;;5074717;28;20056;-91
2021/12/29 12:49:20;;;;;;;82.45;45.63;;;;;;;;;;5073866;28;20036;-94
2021/12/29 12:51:58;;;;;;;291.48;119.20;;;;;;;;;;5058433;28;20021;-94
2021/12/29 12:54:27;;;;;;;128.93;60.47;;;;;;;;;;5058477;28;20123;-95
2021/12/29 12:56:54;;;;;;;71.20;42.70;;;;;;;;;;5063668;28;20033;-94
2021/12/29 12:59:20;;;;;;;92.45;46.97;;;;;;;;;;5077315;28;20034;-95
2021/12/29 13:01:50;;;;;;;185.38;81.00;;;;;;;;;;5077179;28;20020;-94
2021/12/29 13:04:17;;;;;;;262.38;108.68;;;;;;;;;;5077655;28;20375;-95
2021/12/29 13:06:45;;;;;;;117.10;56.67;;;;;;;;;;5079143;28;20033;-92
2021/12/29 13:09:12;;;;;;;85.97;46.70;;;;;;;;;;5077382;28;20029;-91
2021/12/29 13:11:42;;;;;;;90.18;48.22;;;;;;;;;;5067982;28;20025;-91
2021/12/29 13:14:08;;;;;;;93.60;51.80;;;;;;;;;;5059303;28;20032;-95
2021/12/29 13:16:35;;;;;;;125.47;65.05;;;;;;;;;;5058532;28;20112;-95
2021/12/29 13:19:01;;;;;;;86.10;48.80;;;;;;;;;;5058836;28;20017;-94
2021/12/29 13:21:35;;;;;;;79.88;46.10;;;;;;;;;;5057859;28;20410;-95
2021/12/29 13:24:02;;;;;;;274.70;113.82;;;;;;;;;;5058133;28;20069;-94
2021/12/29 13:26:29;;;;;;;355.42;142.38;;;;;;;;;;5058140;28;20029;-94
2021/12/29 13:28:56;;;;;;;598.60;265.17;;;;;;;;;;5077359;28;20119;-95
2021/12/29 13:31:22;;;;;;;785.63;344.30;;;;;;;;;;5078705;28;20077;-94
2021/12/29 13:33:55;;;;;;;341.27;135.07;;;;;;;;;;5078418;28;20039;-94
2021/12/29 13:36:22;;;;;;;111.05;58.58;;;;;;;;;;5078530;28;20021;-94
2021/12/29 13:38:49;;;;;;;134.95;64.95;;;;;;;;;;5078092;28;20048;-94
2021/12/29 13:41:17;;;;;;;86.38;48.10;;;;;;;;;;5077774;28;20029;-94
2021/12/29 13:43:52;;;;;;;77.82;44.10;;;;;;;;;;5078475;28;20085;-93
2021/12/29 13:46:19;;;;;;;103.35;50.80;;;;;;;;;;5076933;28;20088;-94
2021/12/29 13:48:46;;;;;;;598.38;284.83;;;;;;;;;;5077471;28;20319;-94
2021/12/29 13:51:28;;;;;;;671.95;328.73;;;;;;;;;;5078090;28;20017;-94
2021/12/29 13:53:56;;;;;;;485.45;221.77;;;;;;;;;;5078148;28;20031;-91
2021/12/29 13:56:27;;;;;;;200.75;93.45;;;;;;;;;;5077958;28;20112;-94
2021/12/29 13:59:23;;;;;;;274.88;117.57;;;;;;;;;;5078159;28;20512;-94
2021/12/29 14:02:05;;;;;;;132.02;61.38;;;;;;;;;;5036297;28;20439;-95
2021/12/29 14:04:33;;;;;;;81.90;45.50;;;;;;;;;;5036401;28;20491;-95
2021/12/29 14:07:00;;;;;;;83.55;45.15;;;;;;;;;;5036596;28;20030;-95
2021/12/29 14:09:30;;;;;;;76.47;45.42;;;;;;;;;;5036660;28;20025;-94
2021/12/29 14:12:13;;;;;;;100.05;54.97;;;;;;;;;;5019937;28;20041;-94
2021/12/29 14:14:40;;;;;;;110.10;59.17;;;;;;;;;;5019743;28;20407;-95
2021/12/29 14:17:12;;;;;;;120.95;63.17;;;;;;;;;;5035948;28;20041;-95
2021/12/29 14:19:38;;;;;;;112.90;60.80;;;;;;;;;;5036164;28;20426;-95
2021/12/29 14:22:04;;;;;;;133.77;70.30;;;;;;;;;;5036165;28;20025;-95
2021/12/29 14:24:33;;;;;;;132.00;73.70;;;;;;;;;;5019527;28;20033;-95
2021/12/29 14:27:03;;;;;;;139.32;76.00;;;;;;;;;;5019781;28;20120;-95
2021/12/29 14:29:33;;;;;;;152.23;85.75;;;;;;;;;;5036096;28;20048;-96
2021/12/29 14:32:01;;;;;;;157.93;88.63;;;;;;;;;;5036101;28;20061;-94
2021/12/29 14:34:38;;;;;;;162.38;88.95;;;;;;;;;;5018986;28;20080;-94
2021/12/29 14:37:07;;;;;;;165.32;91.50;;;;;;;;;;5021098;28;20048;-95
2021/12/29 14:39:34;;;;;;;163.05;89.93;;;;;;;;;;5077671;28;20012;-96
2021/12/29 14:42:00;;;;;;;161.23;91.47;;;;;;;;;;5078029;28;20021;-93
2021/12/29 14:44:26;;;;;;;171.52;92.63;;;;;;;;;;5077346;28;20314;-93
2021/12/29 14:46:57;;;;;;;164.43;89.20;;;;;;;;;;5077431;28;20144;-93
2021/12/29 14:49:28;;;;;;;311.50;126.28;;;;;;;;;;5077841;28;20044;-90
2021/12/29 14:51:57;;;;;;;394.80;153.23;;;;;;;;;;5080495;28;20025;-89
2021/12/29 14:54:23;;;;;;;298.73;134.35;;;;;;;;;;5077376;28;20037;-95
2021/12/29 14:56:56;;;;;;;340.90;156.80;;;;;;;;;;5077322;28;20080;-95
2021/12/29 14:59:22;;;;;;;;;;;;;;;;;;5080807;28;20024;-94
2021/12/29 15:01:48;;;;;;;254.50;129.07;;;;;;;;;;5080575;28;19930;-95
2021/12/29 15:04:14;;;;;;;232.77;116.78;;;;;;;;;;5081324;28;20062;-95
2021/12/29 15:06:41;;;;;;;239.40;121.85;;;;;;;;;;5081617;28;20024;-94
2021/12/29 15:09:10;;;;;;;205.07;107.55;;;;;;;;;;5081355;28;20021;-95
2021/12/29 15:11:42;;;;;;;218.50;119.18;;;;;;;;;;5081058;28;20459;-95
2021/12/29 15:14:15;;;;;;;205.43;112.30;;;;;;;;;;5080184;28;20276;-96
2021/12/29 15:16:53;;;;;;;201.60;109.60;;;;;;;;;;5081259;28;20464;-96
2021/12/29 15:19:20;;;;;;;235.05;124.95;;;;;;;;;;5081178;28;20020;-96
2021/12/29 15:21:46;;;;;;;325.45;164.48;;;;;;;;;;5081115;28;20017;-96
2021/12/29 15:24:12;;;;;;;260.85;125.57;;;;;;;;;;5080733;28;20082;-93
2021/12/29 15:26:38;;;;;;;201.95;103.43;;;;;;;;;;5080287;28;20152;-95
2021/12/29 15:29:07;;;;;;;222.63;113.20;;;;;;;;;;5083456;28;20021;-96
2021/12/29 15:31:35;;;;;;;214.65;112.85;;;;;;;;;;5090408;28;20067;-96
2021/12/29 15:34:03;;;;;;;220.23;112.15;;;;;;;;;;5091056;28;20058;-96
2021/12/29 15:39:23;;;;;;;345.60;156.65;;;;;;;;;;5084032;28;20086;-96
2021/12/29 15:41:49;;;;;;;374.90;164.40;;;;;;;;;;5080739;28;20021;-96
2021/12/29 15:44:16;;;;;;;333.58;150.80;;;;;;;;;;5080675;28;20025;-96
2021/12/29 15:46:42;;;;;;;385.67;166.45;;;;;;;;;;5080282;28;20056;-96
2021/12/29 15:49:08;;;;;;;442.40;194.85;;;;;;;;;;5080883;28;20055;-96
2021/12/29 15:51:34;;;;;;;192.35;99.22;;;;;;;;;;5080730;28;20029;-96
2021/12/29 15:54:00;;;;;;;165.65;87.20;;;;;;;;;;5080829;28;20025;-95
2021/12/29 15:56:26;;;;;;;180.70;88.57;;;;;;;;;;5080224;28;20073;-96
2021/12/29 15:58:53;;;;;;;121.10;69.22;;;;;;;;;;5081896;28;20028;-96
2021/12/29 16:01:22;;;;;;;81.28;49.97;;;;;;;;;;5079816;28;20022;-96
2021/12/29 16:03:48;;;;;;;108.18;57.78;;;;;;;;;;5080023;28;20033;-96
2021/12/29 16:06:15;;;;;;;83.57;46.15;;;;;;;;;;5079724;28;20059;-96
2021/12/29 16:08:41;;;;;;;82.13;44.40;;;;;;;;;;5079698;28;20024;-95
2021/12/29 16:11:07;;;;;;;66.28;37.72;;;;;;;;;;5080753;28;20033;-96
2021/12/29 16:13:33;;;;;;;95.93;47.25;;;;;;;;;;5079092;28;20107;-96
2021/12/29 16:16:00;;;;;;;89.72;47.00;;;;;;;;;;5080091;28;20410;-95
2021/12/29 16:18:26;;;;;;;71.38;41.60;;;;;;;;;;5079173;28;20059;-96
2021/12/29 16:20:52;;;;;;;83.47;44.30;;;;;;;;;;5079465;28;20036;-95
2021/12/29 16:23:19;;;;;;;84.75;49.08;;;;;;;;;;5079118;28;20036;-95